Terminal Aerodrome Forecast
Issued by NWS Wakefield, VA

Home | Current Version | Previous Version | Text Only | Print | Product List | Glossary On
Versions: 1 2 3 4 5 6 7 8 9 10 11 12 13 14 15 16 17 18 19 20 21 22 23 24 25
000
FTUS41 KAKQ 080537
TAFRIC
TAF
KRIC 080537Z 0806/0906 00000KT P6SM BKN120
     FM081200 VRB03KT P6SM OVC020
     FM081600 31008KT P6SM BKN050
     FM081900 31007KT P6SM BKN250=

USA.gov is the U.S. government's official web portal to all federal, state and local government web resources and services.